Time;durP1;ratioP1;P1;durP2;ratioP2;P2;SDS_P1;SDS_P2;PMS_P1;PMS_P2;Temp;Humidity;BMP_temperature;BMP_pressure;BME280_temperature;BME280_humidity;BME280_pressure;Samples;Min_cycle;Max_cycle;Signal;HPM_P1;HPM_P2
2022/03/20 00:00:30;;;;;;;21.13;14.83;;;5.30;59.40;;;;;;6274878;28;20193;-62
2022/03/20 00:03:32;;;;;;;16.33;13.43;;;5.30;59.10;;;;;;6262074;28;20222;-62
2022/03/20 00:06:32;;;;;;;20.20;15.07;;;5.30;58.80;;;;;;6234495;28;20222;-62
2022/03/20 00:09:35;;;;;;;19.23;14.20;;;5.40;58.90;;;;;;6218524;28;20218;-63
2022/03/20 00:12:37;;;;;;;19.37;13.93;;;5.30;59.30;;;;;;6235304;28;20430;-63
2022/03/20 00:15:42;;;;;;;18.00;13.60;;;5.30;59.40;;;;;;6251171;28;20326;-63
2022/03/20 00:18:43;;;;;;;21.27;14.03;;;5.20;59.10;;;;;;6250818;28;20182;-63
2022/03/20 00:21:43;;;;;;;18.23;13.23;;;5.20;59.20;;;;;;6261027;28;20297;-63
2022/03/20 00:24:45;;;;;;;17.03;13.57;;;5.20;59.60;;;;;;6275121;28;20217;-62
2022/03/20 00:27:45;;;;;;;16.17;13.00;;;5.30;59.60;;;;;;6263614;28;20241;-63
2022/03/20 00:30:47;;;;;;;17.93;13.80;;;5.20;59.60;;;;;;6291818;28;20182;-63
2022/03/20 00:33:48;;;;;;;18.83;13.60;;;5.10;59.90;;;;;;6291310;28;20208;-63
2022/03/20 00:36:49;;;;;;;17.17;13.07;;;5.00;59.80;;;;;;6262685;28;20221;-63
2022/03/20 00:39:50;;;;;;;16.50;13.57;;;4.90;59.50;;;;;;6291198;28;20197;-62
2022/03/20 00:42:52;;;;;;;16.03;11.93;;;4.80;59.60;;;;;;6274918;28;20188;-63
2022/03/20 00:45:53;;;;;;;18.13;13.00;;;4.80;59.90;;;;;;6253292;28;20454;-63
2022/03/20 00:48:54;;;;;;;18.17;13.80;;;4.70;60.00;;;;;;6237402;28;20247;-63
2022/03/20 00:51:55;;;;;;;16.33;12.13;;;4.70;60.20;;;;;;6269756;28;20203;-63
2022/03/20 00:54:56;;;;;;;20.57;13.60;;;4.60;60.10;;;;;;6268530;28;20192;-63
2022/03/20 00:57:57;;;;;;;16.83;12.80;;;4.60;60.00;;;;;;6240224;28;20197;-61
2022/03/20 01:00:58;;;;;;;17.53;11.83;;;4.50;59.90;;;;;;6274063;28;20217;-62
2022/03/20 01:03:59;;;;;;;17.53;12.63;;;4.60;59.90;;;;;;6282730;28;20335;-61
2022/03/20 01:07:01;;;;;;;15.80;12.50;;;4.60;59.90;;;;;;6233458;28;20233;-62
2022/03/20 01:10:07;;;;;;;17.30;12.90;;;4.50;60.00;;;;;;6235719;28;20292;-62
2022/03/20 01:13:08;;;;;;;17.87;13.50;;;4.40;59.70;;;;;;6249307;28;20266;-62
2022/03/20 01:16:09;;;;;;;15.40;11.83;;;4.40;59.70;;;;;;6232950;28;20235;-62
2022/03/20 01:19:11;;;;;;;16.83;12.50;;;4.30;59.50;;;;;;6249043;28;20205;-62
2022/03/20 01:22:12;;;;;;;15.90;11.50;;;4.30;59.70;;;;;;6248719;28;20205;-62
2022/03/20 01:25:13;;;;;;;17.87;12.30;;;4.30;59.80;;;;;;6249301;28;20228;-62
2022/03/20 01:28:15;;;;;;;16.33;11.83;;;4.20;59.90;;;;;;6245876;28;20206;-61
2022/03/20 01:31:16;;;;;;;16.57;12.53;;;4.10;60.00;;;;;;6290210;28;20546;-62
2022/03/20 01:34:17;;;;;;;16.77;12.37;;;4.10;60.30;;;;;;6259182;28;20260;-62
2022/03/20 01:37:18;;;;;;;17.43;12.60;;;4.00;60.40;;;;;;6238689;28;20204;-63
2022/03/20 01:40:19;;;;;;;16.13;11.23;;;3.90;60.70;;;;;;6284534;28;20193;-61
2022/03/20 01:43:20;;;;;;;20.23;13.97;;;3.80;60.90;;;;;;6232085;28;20217;-62
2022/03/20 01:46:21;;;;;;;15.97;12.23;;;3.70;61.10;;;;;;6249079;28;20197;-62
2022/03/20 01:49:22;;;;;;;22.67;14.63;;;3.70;60.80;;;;;;6248479;28;20264;-61
2022/03/20 01:52:24;;;;;;;19.67;13.27;;;3.60;61.50;;;;;;6244771;28;20190;-62
2022/03/20 01:55:28;;;;;;;18.70;12.30;;;3.40;61.60;;;;;;6242030;28;20197;-62
2022/03/20 01:58:29;;;;;;;20.17;13.53;;;3.40;61.60;;;;;;6218130;28;20240;-61
2022/03/20 02:01:30;;;;;;;21.00;13.57;;;3.30;61.60;;;;;;6212958;28;20204;-61
2022/03/20 02:04:34;;;;;;;16.73;13.23;;;3.20;62.00;;;;;;6297665;28;20311;-61
2022/03/20 02:07:37;;;;;;;19.23;13.53;;;3.20;62.20;;;;;;6289487;28;20193;-61
2022/03/20 02:10:40;;;;;;;16.57;12.83;;;3.20;62.70;;;;;;6289313;28;20211;-62
2022/03/20 02:13:41;;;;;;;17.53;13.40;;;3.00;63.20;;;;;;6278915;28;20202;-62
2022/03/20 02:16:42;;;;;;;20.10;15.10;;;2.90;63.70;;;;;;6289339;28;20204;-62
2022/03/20 02:19:45;;;;;;;20.03;12.73;;;2.80;64.00;;;;;;6289592;28;20197;-61
2022/03/20 02:22:47;;;;;;;17.77;12.93;;;2.80;64.20;;;;;;6288216;28;20201;-61
2022/03/20 02:25:49;;;;;;;19.87;13.60;;;2.80;64.10;;;;;;6293286;28;20265;-62
2022/03/20 02:28:50;;;;;;;17.23;12.63;;;2.70;64.20;;;;;;6294674;28;20196;-61
2022/03/20 02:31:51;;;;;;;21.53;14.70;;;2.70;64.40;;;;;;6280179;28;20219;-62
2022/03/20 02:34:51;;;;;;;19.93;13.70;;;2.70;64.50;;;;;;6282839;28;20211;-62
2022/03/20 02:37:53;;;;;;;20.87;14.10;;;2.60;64.40;;;;;;6272744;28;20282;-61
2022/03/20 02:40:55;;;;;;;19.33;13.90;;;2.50;64.60;;;;;;6293646;28;20200;-62
2022/03/20 02:43:57;;;;;;;18.23;13.37;;;2.40;64.50;;;;;;6260633;28;20247;-61
2022/03/20 02:46:58;;;;;;;18.63;12.80;;;2.40;64.40;;;;;;6236061;28;20186;-61
2022/03/20 02:50:17;;;;;;;21.00;14.00;;;2.20;64.80;;;;;;6236439;28;20182;-62
2022/03/20 02:53:19;;;;;;;21.87;14.00;;;2.30;65.10;;;;;;6292459;28;20186;-61
2022/03/20 02:56:21;;;;;;;21.33;13.90;;;2.10;65.00;;;;;;6234745;28;20197;-62
2022/03/20 02:59:22;;;;;;;21.80;14.60;;;2.10;65.10;;;;;;6265009;28;20197;-62
2022/03/20 03:02:22;;;;;;;18.43;13.73;;;2.10;65.20;;;;;;6260157;28;20181;-62
2022/03/20 03:05:26;;;;;;;21.93;13.70;;;2.10;65.30;;;;;;6259834;28;20217;-62
2022/03/20 03:11:46;;;;;;;18.63;13.10;;;2.10;65.60;;;;;;6260376;28;20182;-62
2022/03/20 03:18:07;;;;;;;19.83;14.30;;;1.90;66.30;;;;;;6293810;28;20178;-61
2022/03/20 03:21:13;;;;;;;20.33;13.80;;;1.90;66.30;;;;;;6266445;28;20197;-59
2022/03/20 03:24:14;;;;;;;20.40;14.20;;;1.90;66.20;;;;;;6262521;28;20289;-61
2022/03/20 03:27:15;;;;;;;22.93;14.93;;;2.00;66.40;;;;;;6251929;28;20237;-61
2022/03/20 03:30:15;;;;;;;22.13;13.83;;;2.00;66.50;;;;;;6242294;28;20235;-61
2022/03/20 03:33:18;;;;;;;20.17;12.53;;;2.00;65.40;;;;;;6243083;28;20193;-61
2022/03/20 03:36:19;;;;;;;20.57;14.17;;;1.90;66.00;;;;;;6273783;28;20196;-61
2022/03/20 03:39:20;;;;;;;17.73;12.67;;;1.80;66.10;;;;;;6261480;28;20225;-61
2022/03/20 03:42:21;;;;;;;20.63;13.57;;;1.60;66.20;;;;;;6294406;28;20250;-60
2022/03/20 03:45:23;;;;;;;18.40;13.63;;;1.50;66.70;;;;;;6268164;28;20219;-61
2022/03/20 03:48:24;;;;;;;26.07;16.07;;;1.40;67.00;;;;;;6251843;28;20216;-61
2022/03/20 03:51:25;;;;;;;18.77;12.87;;;1.40;67.10;;;;;;6249671;28;20280;-61
2022/03/20 03:54:26;;;;;;;17.27;12.33;;;1.30;67.20;;;;;;6284347;28;20193;-61
2022/03/20 03:57:27;;;;;;;17.57;12.67;;;1.30;67.10;;;;;;6283589;28;20176;-61
2022/03/20 04:00:32;;;;;;;20.40;14.23;;;1.30;67.30;;;;;;6275383;28;20217;-60
2022/03/20 04:03:33;;;;;;;21.43;14.43;;;1.20;67.60;;;;;;6288435;28;20217;-59
2022/03/20 04:06:34;;;;;;;19.57;13.97;;;1.10;67.60;;;;;;6276034;28;20194;-59
2022/03/20 04:09:36;;;;;;;18.87;13.37;;;1.10;67.90;;;;;;6258247;28;20186;-59
2022/03/20 04:12:40;;;;;;;19.77;14.20;;;1.00;68.20;;;;;;6275453;28;20182;-59
2022/03/20 04:15:41;;;;;;;18.90;13.20;;;1.00;68.50;;;;;;6275125;28;20190;-59
2022/03/20 04:18:42;;;;;;;20.97;13.70;;;1.00;68.50;;;;;;6282790;28;20201;-59
2022/03/20 04:21:43;;;;;;;18.93;13.23;;;0.90;68.90;;;;;;6275191;28;20224;-59
2022/03/20 04:24:44;;;;;;;24.80;15.73;;;0.90;69.00;;;;;;6291853;28;20255;-59
2022/03/20 04:27:45;;;;;;;19.73;13.00;;;0.90;69.30;;;;;;6274648;28;20233;-59
2022/03/20 04:30:48;;;;;;;20.03;13.20;;;0.90;68.90;;;;;;6275323;28;20197;-59
2022/03/20 04:33:56;;;;;;;22.83;13.77;;;0.80;69.00;;;;;;6284181;28;20208;-59
2022/03/20 04:36:57;;;;;;;20.50;13.60;;;0.80;69.20;;;;;;6256663;28;20260;-59
2022/03/20 04:39:57;;;;;;;21.23;14.13;;;0.70;69.30;;;;;;6268687;28;20194;-59
2022/03/20 04:42:59;;;;;;;17.17;12.60;;;0.70;69.30;;;;;;6252507;28;20198;-61
2022/03/20 04:46:00;;;;;;;18.20;12.67;;;0.70;69.30;;;;;;6260226;28;20201;-60
2022/03/20 04:58:58;;;;;;;24.13;14.47;;;0.60;69.40;;;;;;6283301;28;20201;-63
2022/03/20 05:01:59;;;;;;;20.40;14.40;;;0.60;69.60;;;;;;6269650;28;20203;-63
2022/03/20 05:04:59;;;;;;;19.40;13.03;;;0.60;69.50;;;;;;6269146;28;20213;-62
2022/03/20 05:08:00;;;;;;;20.60;14.40;;;0.60;69.50;;;;;;6290572;28;20181;-63
2022/03/20 05:14:20;;;;;;;25.23;16.20;;;0.60;69.60;;;;;;6285402;28;20194;-62
2022/03/20 05:17:21;;;;;;;20.83;14.07;;;0.60;69.70;;;;;;6290334;28;20242;-63
2022/03/20 05:20:23;;;;;;;23.07;14.03;;;0.50;70.20;;;;;;6290528;28;20190;-63
2022/03/20 05:23:25;;;;;;;20.47;13.33;;;0.50;70.30;;;;;;6289865;28;20217;-62
2022/03/20 05:26:28;;;;;;;20.53;13.80;;;0.50;70.30;;;;;;6290028;28;20234;-62
2022/03/20 05:29:29;;;;;;;25.33;14.33;;;0.40;70.50;;;;;;6287510;28;20250;-63
2022/03/20 05:32:31;;;;;;;20.20;13.97;;;0.40;70.60;;;;;;6289961;28;20256;-61
2022/03/20 05:35:34;;;;;;;20.63;15.10;;;0.40;71.00;;;;;;6285730;28;20189;-61
2022/03/20 05:38:36;;;;;;;20.37;13.77;;;0.40;70.80;;;;;;6247671;28;20200;-61
2022/03/20 05:41:47;;;;;;;20.03;14.03;;;0.50;70.90;;;;;;6277383;28;20197;-60
2022/03/20 05:44:48;;;;;;;17.97;13.10;;;0.40;71.00;;;;;;6253753;28;20679;-59
2022/03/20 05:47:48;;;;;;;20.17;13.10;;;0.40;71.10;;;;;;6232529;28;20212;-60
2022/03/20 05:50:50;;;;;;;20.73;13.83;;;0.40;71.00;;;;;;6255152;28;20189;-59
2022/03/20 05:53:51;;;;;;;21.60;15.23;;;0.50;70.90;;;;;;6272999;28;20206;-58
2022/03/20 06:00:16;;;;;;;21.93;14.00;;;0.60;70.70;;;;;;6215555;28;20209;-58
2022/03/20 06:03:17;;;;;;;20.57;14.30;;;0.60;70.70;;;;;;6282866;28;20189;-58
2022/03/20 06:06:18;;;;;;;19.00;13.47;;;0.70;70.80;;;;;;6269779;28;20189;-58
2022/03/20 06:09:19;;;;;;;22.63;14.40;;;0.70;70.60;;;;;;6253010;28;20220;-58
2022/03/20 06:12:19;;;;;;;20.03;14.47;;;0.70;70.80;;;;;;6278634;28;20199;-58
2022/03/20 06:15:21;;;;;;;20.70;15.90;;;0.70;70.80;;;;;;6257083;28;20201;-57
2022/03/20 06:18:23;;;;;;;19.33;13.83;;;0.80;70.60;;;;;;6257481;28;20200;-58
2022/03/20 06:21:25;;;;;;;22.77;14.50;;;0.80;70.60;;;;;;6232085;28;20222;-59
2022/03/20 06:24:26;;;;;;;21.23;13.43;;;0.90;70.60;;;;;;6268130;28;20210;-58
2022/03/20 06:27:27;;;;;;;18.90;13.17;;;0.80;70.80;;;;;;6264501;28;20267;-59
2022/03/20 06:30:33;;;;;;;22.13;14.93;;;0.90;70.40;;;;;;6262582;28;20190;-59
2022/03/20 06:33:35;;;;;;;17.17;12.50;;;0.90;70.20;;;;;;6267056;28;20194;-61
2022/03/20 06:36:36;;;;;;;21.00;13.97;;;1.00;70.10;;;;;;6270247;28;20201;-59
2022/03/20 06:39:37;;;;;;;26.80;16.43;;;1.00;69.90;;;;;;6271132;28;20197;-59
2022/03/20 06:42:38;;;;;;;22.27;14.03;;;1.10;69.70;;;;;;6257721;28;20206;-59
2022/03/20 06:45:41;;;;;;;19.40;15.03;;;1.20;69.60;;;;;;6257068;28;20223;-60
2022/03/20 06:48:42;;;;;;;19.67;12.73;;;1.30;69.30;;;;;;6278461;28;20203;-59
2022/03/20 06:51:43;;;;;;;21.23;13.83;;;1.30;69.10;;;;;;6274914;28;20201;-60
2022/03/20 06:54:43;;;;;;;19.83;12.47;;;1.40;69.00;;;;;;6257426;28;20201;-60
2022/03/20 06:57:46;;;;;;;21.00;13.37;;;1.50;69.00;;;;;;6261830;28;20194;-60
2022/03/20 07:00:47;;;;;;;21.33;13.77;;;1.60;68.90;;;;;;6283283;28;20198;-60
2022/03/20 07:03:48;;;;;;;19.90;14.53;;;1.70;68.50;;;;;;6255657;28;20288;-59
2022/03/20 07:06:49;;;;;;;26.73;17.07;;;1.80;68.30;;;;;;6277782;28;20189;-59
2022/03/20 07:09:50;;;;;;;24.80;15.53;;;1.80;67.80;;;;;;6265849;28;20201;-60
2022/03/20 07:13:48;;;;;;;24.33;16.90;;;1.90;67.50;;;;;;6282154;28;20197;-59
2022/03/20 07:16:14;;;;;;;24.23;15.63;;;2.10;67.10;;;;;;6285436;28;20178;-60
2022/03/20 07:19:15;;;;;;;22.53;15.13;;;2.30;66.70;;;;;;6276194;28;20265;-60
2022/03/20 07:22:19;;;;;;;21.87;15.20;;;2.40;66.30;;;;;;6267933;28;20189;-60
2022/03/20 07:32:02;;;;;;;20.40;14.50;;;2.80;66.30;;;;;;6266306;28;20197;-59
2022/03/20 07:35:04;;;;;;;21.53;13.33;;;2.90;66.20;;;;;;6278716;28;20207;-60
2022/03/20 07:38:04;;;;;;;19.07;13.67;;;3.00;65.90;;;;;;6236142;28;20569;-60
2022/03/20 07:41:05;;;;;;;23.73;15.23;;;3.10;65.90;;;;;;6265581;28;20205;-60
2022/03/20 07:44:06;;;;;;;24.77;17.37;;;3.20;65.40;;;;;;6263591;28;20227;-61
2022/03/20 07:47:08;;;;;;;18.27;13.53;;;3.30;64.80;;;;;;6270822;28;20181;-60
2022/03/20 07:50:09;;;;;;;22.13;15.63;;;3.40;64.60;;;;;;6249091;28;20193;-61
2022/03/20 07:53:11;;;;;;;19.67;13.33;;;3.60;62.00;;;;;;6284222;28;20189;-61
2022/03/20 07:56:12;;;;;;;17.27;12.50;;;3.70;59.50;;;;;;6268626;28;20186;-61
2022/03/20 07:59:13;;;;;;;17.67;10.83;;;4.00;53.60;;;;;;6276335;28;20200;-61
2022/03/20 08:02:14;;;;;;;15.80;11.20;;;4.20;51.20;;;;;;6263826;28;20194;-61
2022/03/20 08:05:15;;;;;;;13.83;10.37;;;4.30;51.40;;;;;;6252570;28;20311;-60
2022/03/20 08:08:16;;;;;;;15.60;11.10;;;4.30;51.10;;;;;;6260105;28;20194;-58
2022/03/20 08:11:17;;;;;;;14.33;10.07;;;4.40;51.10;;;;;;6263381;28;20205;-58
2022/03/20 08:14:18;;;;;;;13.67;9.60;;;4.50;52.10;;;;;;6252927;28;20198;-59
2022/03/20 08:17:19;;;;;;;15.27;11.10;;;4.60;52.10;;;;;;6269609;28;20216;-58
2022/03/20 08:20:20;;;;;;;18.90;11.53;;;4.80;50.00;;;;;;6274967;28;20198;-59
2022/03/20 08:23:20;;;;;;;17.13;11.47;;;5.00;49.60;;;;;;6267898;28;20236;-58
2022/03/20 08:26:22;;;;;;;15.03;10.77;;;5.30;47.60;;;;;;6233959;28;20248;-59
2022/03/20 08:29:23;;;;;;;15.93;10.63;;;5.40;48.60;;;;;;6273974;28;20193;-58
2022/03/20 08:32:25;;;;;;;16.07;12.17;;;5.30;48.40;;;;;;6288232;28;20196;-58
2022/03/20 08:35:26;;;;;;;15.73;10.43;;;5.50;46.50;;;;;;6269982;28;20209;-58
2022/03/20 08:38:28;;;;;;;14.63;10.47;;;5.60;47.30;;;;;;6257950;28;20258;-58
2022/03/20 08:41:33;;;;;;;14.37;9.63;;;5.60;48.10;;;;;;6266197;28;20221;-58
2022/03/20 08:44:34;;;;;;;14.80;10.13;;;5.60;49.00;;;;;;6233015;28;20214;-58
2022/03/20 08:47:36;;;;;;;16.07;10.57;;;5.60;48.00;;;;;;6242683;28;20244;-58
2022/03/20 08:50:37;;;;;;;13.33;9.20;;;5.80;45.50;;;;;;6258013;28;20188;-57
2022/03/20 08:53:39;;;;;;;12.23;9.60;;;6.00;44.60;;;;;;6291248;28;20186;-58
2022/03/20 08:56:40;;;;;;;12.07;9.33;;;6.00;45.70;;;;;;6261343;28;20289;-57
2022/03/20 08:59:42;;;;;;;14.47;10.20;;;6.10;46.40;;;;;;6237107;28;20205;-58
2022/03/20 09:02:44;;;;;;;14.10;9.93;;;6.30;43.50;;;;;;6274403;28;20212;-55
2022/03/20 09:05:45;;;;;;;15.47;10.97;;;6.30;44.70;;;;;;6307187;28;20214;-57
2022/03/20 09:08:47;;;;;;;18.03;11.80;;;6.80;42.00;;;;;;6267790;28;20550;-57
2022/03/20 09:11:48;;;;;;;19.73;12.00;;;6.90;41.90;;;;;;6239288;28;20285;-57
2022/03/20 09:14:49;;;;;;;14.43;10.73;;;6.90;41.40;;;;;;6255872;28;20189;-57
2022/03/20 09:21:10;;;;;;;14.03;10.93;;;7.00;41.10;;;;;;6272434;28;20202;-60
2022/03/20 09:24:10;;;;;;;14.57;11.27;;;7.10;40.30;;;;;;6267688;28;20238;-60
2022/03/20 09:27:11;;;;;;;15.97;10.47;;;7.30;39.00;;;;;;6281814;28;20244;-57
2022/03/20 09:30:12;;;;;;;16.53;10.30;;;7.40;38.50;;;;;;6259445;28;20262;-57
2022/03/20 09:33:13;;;;;;;14.07;10.70;;;7.40;39.70;;;;;;6267699;28;20201;-57
2022/03/20 09:36:14;;;;;;;13.73;10.53;;;7.50;39.70;;;;;;6267717;28;20196;-57
2022/03/20 09:39:15;;;;;;;14.43;10.60;;;7.60;39.10;;;;;;6223645;28;20282;-57
2022/03/20 09:42:19;;;;;;;13.87;10.20;;;7.60;39.80;;;;;;6287377;28;20294;-57
2022/03/20 09:45:20;;;;;;;17.60;11.33;;;7.70;37.80;;;;;;6307102;28;20210;-57
2022/03/20 09:48:21;;;;;;;14.80;10.50;;;7.80;38.40;;;;;;6267587;28;20308;-57
2022/03/20 09:51:22;;;;;;;15.90;10.83;;;8.00;38.60;;;;;;6273184;28;20196;-58
2022/03/20 09:54:23;;;;;;;15.47;10.67;;;8.10;38.10;;;;;;6255375;28;20197;-57
2022/03/20 09:57:28;;;;;;;13.47;10.30;;;8.10;38.90;;;;;;6255944;28;20254;-57
2022/03/20 10:00:30;;;;;;;11.57;9.33;;;8.20;37.70;;;;;;6270496;28;20202;-58
2022/03/20 10:03:31;;;;;;;11.37;8.07;;;8.30;38.30;;;;;;6272982;28;20228;-58
2022/03/20 10:06:36;;;;;;;11.43;8.50;;;8.50;35.90;;;;;;6278656;28;20279;-57
2022/03/20 10:09:36;;;;;;;9.77;8.30;;;8.50;35.60;;;;;;6231380;28;20200;-60
2022/03/20 10:12:44;;;;;;;12.80;10.37;;;8.60;35.00;;;;;;6252968;28;20193;-59
2022/03/20 10:15:45;;;;;;;11.67;9.20;;;8.80;36.70;;;;;;6273529;28;20197;-59
2022/03/20 10:18:46;;;;;;;12.77;8.63;;;8.80;34.30;;;;;;6276738;28;20201;-60
2022/03/20 10:21:47;;;;;;;11.60;8.73;;;8.80;34.70;;;;;;6254723;28;20247;-59
2022/03/20 10:24:50;;;;;;;9.30;7.53;;;8.90;33.20;;;;;;6240145;28;20221;-58
2022/03/20 10:27:57;;;;;;;11.60;8.93;;;8.80;33.00;;;;;;6277065;28;20328;-58
2022/03/20 10:30:59;;;;;;;12.23;8.53;;;8.90;32.90;;;;;;6272731;28;20187;-58
2022/03/20 10:34:05;;;;;;;10.67;8.30;;;8.90;31.50;;;;;;6263152;28;20226;-58
2022/03/20 10:37:06;;;;;;;8.60;7.70;;;9.10;32.40;;;;;;6285199;28;20375;-58
2022/03/20 10:40:08;;;;;;;11.73;9.00;;;9.00;30.80;;;;;;6222382;28;20201;-58
2022/03/20 10:43:14;;;;;;;11.70;8.90;;;9.20;31.60;;;;;;6291722;28;20225;-58
2022/03/20 10:46:26;;;;;;;9.93;8.40;;;9.30;31.00;;;;;;6271067;28;20194;-59
2022/03/20 10:49:28;;;;;;;10.90;8.17;;;9.30;30.80;;;;;;6277778;28;20252;-59
2022/03/20 10:52:30;;;;;;;9.07;7.57;;;9.30;31.60;;;;;;6293429;28;20186;-58
2022/03/20 10:55:31;;;;;;;8.30;7.47;;;9.70;29.70;;;;;;6269656;28;20610;-59
2022/03/20 10:58:37;;;;;;;8.80;7.80;;;9.80;29.00;;;;;;6255826;28;20197;-59
2022/03/20 11:01:40;;;;;;;8.37;7.47;;;9.80;28.10;;;;;;6261453;28;20262;-59
2022/03/20 11:04:41;;;;;;;10.53;8.07;;;10.00;29.60;;;;;;6281631;28;20297;-59
2022/03/20 11:07:43;;;;;;;8.97;7.67;;;10.30;29.50;;;;;;6279975;28;20186;-59
2022/03/20 11:10:46;;;;;;;12.43;7.53;;;10.50;29.80;;;;;;6263771;28;20193;-60
2022/03/20 11:13:48;;;;;;;9.40;7.23;;;10.80;29.80;;;;;;6276531;28;20194;-59
2022/03/20 11:16:51;;;;;;;10.10;7.67;;;11.30;28.40;;;;;;6271284;28;20266;-60
2022/03/20 11:19:57;;;;;;;9.40;7.80;;;11.70;27.20;;;;;;6259563;28;20190;-59
2022/03/20 11:23:04;;;;;;;10.10;7.67;;;11.80;26.90;;;;;;6282907;28;20224;-60
2022/03/20 11:26:09;;;;;;;9.53;7.67;;;12.10;28.00;;;;;;6276372;28;20234;-59
2022/03/20 11:29:12;;;;;;;9.37;8.37;;;12.30;26.70;;;;;;6259932;28;20213;-61
2022/03/20 11:32:14;;;;;;;11.53;8.27;;;12.50;26.70;;;;;;6280925;28;20193;-61
2022/03/20 11:35:15;;;;;;;12.07;7.83;;;12.40;25.50;;;;;;6262054;28;20221;-60
2022/03/20 11:38:24;;;;;;;11.70;7.90;;;12.70;25.90;;;;;;6259136;28;20274;-60
2022/03/20 11:41:24;;;;;;;9.33;7.93;;;12.90;25.60;;;;;;6257931;28;20194;-60
2022/03/20 11:44:25;;;;;;;10.23;7.60;;;12.90;25.40;;;;;;6251822;28;20224;-62
2022/03/20 11:47:29;;;;;;;9.57;7.70;;;13.10;26.20;;;;;;6270162;28;20217;-60
2022/03/20 11:50:49;;;;;;;9.63;7.87;;;13.30;26.30;;;;;;6275972;28;20258;-60
2022/03/20 11:54:03;;;;;;;10.30;7.53;;;13.30;25.40;;;;;;6291299;28;20202;-60
2022/03/20 11:57:24;;;;;;;9.93;7.90;;;13.50;25.50;;;;;;6289391;28;20194;-60
2022/03/20 12:00:28;;;;;;;8.70;7.30;;;13.90;24.80;;;;;;6274813;28;20191;-61
2022/03/20 12:03:52;;;;;;;9.73;7.93;;;14.10;24.80;;;;;;6258863;28;20196;-61
2022/03/20 12:07:17;;;;;;;9.07;7.63;;;14.30;24.70;;;;;;6275524;28;20201;-60
2022/03/20 12:10:49;;;;;;;10.97;8.03;;;14.50;24.90;;;;;;6238177;28;20195;-63
2022/03/20 12:14:05;;;;;;;7.47;6.63;;;14.80;23.70;;;;;;6257688;28;20201;-63
2022/03/20 12:17:07;;;;;;;8.27;6.97;;;15.40;22.70;;;;;;6276722;28;20187;-64
2022/03/20 12:20:08;;;;;;;9.43;7.10;;;15.70;23.40;;;;;;6277375;28;20280;-62
2022/03/20 12:23:38;;;;;;;8.10;7.13;;;16.30;23.10;;;;;;6261135;28;20241;-62
2022/03/20 12:26:44;;;;;;;8.40;7.37;;;17.00;21.30;;;;;;6296269;28;20241;-62
2022/03/20 12:29:53;;;;;;;8.20;7.07;;;17.70;20.40;;;;;;6303205;28;20194;-63
2022/03/20 12:32:58;;;;;;;8.83;7.13;;;18.30;19.60;;;;;;6285116;28;20190;-62
2022/03/20 12:35:58;;;;;;;9.03;6.87;;;19.70;18.30;;;;;;6284970;28;20194;-63
2022/03/20 12:38:59;;;;;;;9.13;6.97;;;21.10;17.60;;;;;;6275586;28;20223;-63
2022/03/20 12:42:13;;;;;;;9.90;7.27;;;22.30;16.10;;;;;;6260610;28;20188;-63
2022/03/20 12:45:17;;;;;;;8.00;7.20;;;23.40;15.70;;;;;;6284589;28;20222;-62
2022/03/20 12:48:20;;;;;;;9.47;7.17;;;25.50;14.20;;;;;;6287133;28;20247;-62
2022/03/20 12:51:32;;;;;;;8.07;7.30;;;26.50;13.80;;;;;;6275649;28;20197;-63
2022/03/20 12:54:35;;;;;;;8.23;7.30;;;27.30;13.00;;;;;;6288932;28;20248;-63
2022/03/20 12:57:47;;;;;;;7.80;7.10;;;28.20;12.50;;;;;;6263884;28;20246;-62
2022/03/20 13:00:48;;;;;;;8.33;7.53;;;28.20;12.30;;;;;;6274133;28;20280;-62
2022/03/20 13:03:49;;;;;;;7.73;7.03;;;27.00;13.20;;;;;;6277071;28;20223;-62
2022/03/20 13:06:50;;;;;;;9.43;8.10;;;27.40;12.70;;;;;;6279061;28;20197;-61
2022/03/20 13:09:59;;;;;;;9.97;7.70;;;26.60;13.10;;;;;;6289446;28;20205;-61
2022/03/20 13:13:03;;;;;;;9.20;8.20;;;25.80;13.60;;;;;;6256702;28;20198;-62
2022/03/20 13:16:14;;;;;;;7.93;7.20;;;26.60;13.20;;;;;;6287329;28;20244;-61
2022/03/20 13:19:28;;;;;;;9.40;7.00;;;27.10;13.00;;;;;;6216172;28;20209;-61
2022/03/20 13:22:37;;;;;;;9.37;8.10;;;26.50;12.90;;;;;;6232970;28;20249;-60
2022/03/20 13:25:48;;;;;;;9.50;8.60;;;25.90;13.30;;;;;;6281230;28;20245;-60
2022/03/20 13:28:49;;;;;;;8.57;7.73;;;25.50;14.20;;;;;;6273196;28;20183;-59
2022/03/20 13:32:12;;;;;;;8.47;7.50;;;26.80;13.10;;;;;;6256149;28;20189;-62
2022/03/20 13:35:19;;;;;;;8.07;7.27;;;27.70;12.60;;;;;;6273683;28;20228;-62
2022/03/20 13:38:20;;;;;;;7.57;6.87;;;28.20;12.10;;;;;;6276490;28;20190;-61
2022/03/20 13:41:24;;;;;;;8.70;7.83;;;28.90;11.70;;;;;;6290046;28;20185;-61
2022/03/20 13:44:24;;;;;;;8.57;7.67;;;29.50;11.20;;;;;;6288255;28;20240;-61
2022/03/20 13:47:27;;;;;;;8.80;7.90;;;28.80;11.30;;;;;;6248488;28;20276;-62
2022/03/20 13:50:29;;;;;;;8.17;7.37;;;29.10;11.60;;;;;;6264960;28;20268;-62
2022/03/20 13:53:30;;;;;;;9.07;7.60;;;29.60;11.60;;;;;;6257676;28;20197;-59
2022/03/20 13:56:31;;;;;;;7.37;6.70;;;30.70;10.90;;;;;;6271376;28;20197;-59
2022/03/20 13:59:46;;;;;;;8.93;7.53;;;30.80;10.90;;;;;;6250404;28;20196;-59
2022/03/20 14:02:51;;;;;;;9.37;7.33;;;30.10;10.60;;;;;;6269854;28;20243;-61
2022/03/20 14:05:52;;;;;;;8.83;7.80;;;31.00;10.20;;;;;;6246838;28;20222;-61
2022/03/20 14:08:53;;;;;;;7.80;7.10;;;29.90;11.00;;;;;;6289683;28;20267;-61
2022/03/20 14:11:54;;;;;;;8.80;7.90;;;30.00;10.90;;;;;;6256336;28;20178;-61
2022/03/20 14:15:11;;;;;;;8.53;7.73;;;28.90;11.20;;;;;;6282709;28;20198;-62
2022/03/20 14:18:16;;;;;;;8.73;7.93;;;26.60;12.40;;;;;;6273134;28;20281;-62
2022/03/20 14:21:22;;;;;;;7.83;7.10;;;25.70;12.70;;;;;;6284341;28;20201;-62
2022/03/20 14:24:23;;;;;;;9.33;7.00;;;25.00;12.90;;;;;;6248395;28;20221;-63
2022/03/20 14:27:28;;;;;;;10.90;7.07;;;24.20;13.80;;;;;;6236099;28;20242;-62
2022/03/20 14:40:47;;;;;;;7.80;7.10;;;21.30;15.30;;;;;;6252638;28;20198;-62
2022/03/20 14:44:24;;;;;;;11.00;6.57;;;21.20;16.20;;;;;;6268910;28;20218;-62
2022/03/20 14:47:25;;;;;;;7.37;6.67;;;21.20;15.80;;;;;;6195447;28;20196;-62
2022/03/20 14:50:25;;;;;;;8.97;6.73;;;20.20;16.10;;;;;;6278414;28;20201;-62
2022/03/20 14:53:32;;;;;;;7.83;6.97;;;18.90;17.00;;;;;;6250538;28;20190;-62
2022/03/20 14:56:33;;;;;;;10.07;7.23;;;18.30;17.10;;;;;;6227752;28;20214;-62
2022/03/20 14:59:34;;;;;;;8.37;6.87;;;17.40;18.10;;;;;;6234661;28;20197;-62
2022/03/20 15:02:35;;;;;;;10.37;7.20;;;16.30;19.10;;;;;;6235500;28;20272;-62
2022/03/20 15:05:36;;;;;;;9.17;6.53;;;16.00;20.20;;;;;;6233979;28;20608;-63
2022/03/20 15:11:56;;;;;;;7.80;6.73;;;16.30;19.40;;;;;;6286858;28;20198;-63
2022/03/20 15:14:59;;;;;;;9.53;7.23;;;16.10;19.70;;;;;;6237720;28;20200;-62
2022/03/20 15:18:03;;;;;;;8.67;6.83;;;15.60;21.20;;;;;;6251621;28;20285;-62
2022/03/20 15:21:04;;;;;;;9.23;6.27;;;15.50;21.70;;;;;;6235614;28;20195;-62
2022/03/20 15:24:05;;;;;;;8.53;7.13;;;15.70;21.50;;;;;;6251208;28;20217;-61
2022/03/20 15:27:07;;;;;;;10.93;7.20;;;15.60;21.50;;;;;;6235039;28;20234;-62
2022/03/20 15:30:08;;;;;;;7.50;6.77;;;15.60;21.50;;;;;;6267063;28;20278;-63
2022/03/20 15:33:09;;;;;;;8.93;6.87;;;15.70;21.00;;;;;;6242526;28;20210;-63
2022/03/20 15:36:15;;;;;;;8.03;7.23;;;15.30;21.60;;;;;;6215186;28;20280;-61
2022/03/20 15:39:18;;;;;;;7.13;6.33;;;14.70;21.40;;;;;;6247270;28;20244;-61
2022/03/20 15:42:19;;;;;;;10.37;7.03;;;14.60;21.50;;;;;;6222886;28;20205;-62
2022/03/20 15:45:19;;;;;;;8.90;6.60;;;14.30;21.80;;;;;;6247342;28;20210;-62
2022/03/20 15:48:20;;;;;;;7.90;6.63;;;13.80;21.70;;;;;;6250918;28;20197;-61
2022/03/20 15:51:21;;;;;;;8.03;6.67;;;13.50;22.50;;;;;;6222168;28;20210;-62
2022/03/20 15:54:22;;;;;;;8.07;7.10;;;13.30;23.40;;;;;;6259245;28;20186;-61
2022/03/20 15:57:24;;;;;;;9.00;6.33;;;13.00;22.90;;;;;;6242540;28;20201;-62
2022/03/20 16:00:25;;;;;;;7.90;6.40;;;12.50;23.50;;;;;;6253877;28;20194;-62
2022/03/20 16:03:26;;;;;;;8.63;6.13;;;12.20;24.60;;;;;;6249030;28;20201;-62
2022/03/20 16:06:29;;;;;;;6.97;6.27;;;11.90;25.20;;;;;;6251114;28;20195;-63
2022/03/20 16:09:30;;;;;;;7.30;6.07;;;12.10;25.10;;;;;;6229649;28;20187;-62
2022/03/20 16:12:30;;;;;;;6.53;5.53;;;11.90;25.30;;;;;;6245521;28;20189;-62
2022/03/20 16:15:31;;;;;;;6.60;5.93;;;11.70;24.60;;;;;;6251107;28;20199;-62
2022/03/20 16:18:32;;;;;;;7.27;6.17;;;11.50;25.50;;;;;;6240344;28;20226;-62
2022/03/20 16:21:33;;;;;;;7.70;6.70;;;11.20;24.40;;;;;;6244961;28;20200;-62
2022/03/20 16:31:14;;;;;;;7.83;6.07;;;10.60;26.60;;;;;;6300996;28;20187;-64
2022/03/20 16:34:15;;;;;;;6.60;5.40;;;10.30;27.40;;;;;;6258221;28;20240;-62
2022/03/20 16:37:17;;;;;;;6.90;5.50;;;10.10;27.50;;;;;;6300554;28;20197;-63